Terminal Aerodrome Forecast
Issued by NWS

Home | Current Version | Previous Version | Text Only | Print | Product List | Glossary On
Versions: 1 2 3 4 5 6 7 8 9 10 11 12 13 14 15
346
FTUS46 KLOX 190814 AAA
TAFPRB
TAF AMD
KPRB 190814Z 1908/2006 32015KT P6SM SKC
     FM191100 34008KT P6SM VCSH OVC020
     FM191600 34008KT P6SM BKN050
     FM192100 31025G35KT P6SM SCT050
     FM200100 32015G25KT P6SM SKC=

USA.gov is the U.S. government's official web portal to all federal, state and local government web resources and services.